sensor_id;sensor_type;location;lat;lon;timestamp;pressure;altitude;pressure_sealevel;temperature;humidity
3178;BME280;38141;42.666;23.344;2023-04-27T00:02:44;94350.22;;;8.80;63.50
3178;BME280;38141;42.666;23.344;2023-04-27T00:05:10;94302.69;;;8.47;63.06
3178;BME280;38141;42.666;23.344;2023-04-27T00:07:37;94364.84;;;8.79;62.84
3178;BME280;38141;42.666;23.344;2023-04-27T00:10:07;94340.06;;;8.56;63.50
3178;BME280;38141;42.666;23.344;2023-04-27T00:12:34;94363.28;;;8.71;63.53
3178;BME280;38141;42.666;23.344;2023-04-27T00:15:01;94272.72;;;7.94;63.23
3178;BME280;38141;42.666;23.344;2023-04-27T00:17:28;94350.47;;;8.54;63.51
3178;BME280;38141;42.666;23.344;2023-04-27T00:19:55;94370.66;;;8.81;63.62
3178;BME280;38141;42.666;23.344;2023-04-27T00:22:22;94368.25;;;8.72;63.16
3178;BME280;38141;42.666;23.344;2023-04-27T00:24:48;94377.88;;;8.63;63.51
3178;BME280;38141;42.666;23.344;2023-04-27T00:27:17;94375.88;;;8.53;63.73
3178;BME280;38141;42.666;23.344;2023-04-27T00:29:43;94368.50;;;8.46;63.59
3178;BME280;38141;42.666;23.344;2023-04-27T00:32:10;94345.25;;;8.27;63.18
3178;BME280;38141;42.666;23.344;2023-04-27T00:34:37;94362.69;;;8.40;63.45
3178;BME280;38141;42.666;23.344;2023-04-27T00:37:04;94368.84;;;8.37;64.48
3178;BME280;38141;42.666;23.344;2023-04-27T00:39:33;94360.59;;;8.16;64.02
3178;BME280;38141;42.666;23.344;2023-04-27T00:42:00;94378.38;;;8.24;64.54
3178;BME280;38141;42.666;23.344;2023-04-27T00:44:29;94371.66;;;8.04;65.43
3178;BME280;38141;42.666;23.344;2023-04-27T00:46:57;94340.41;;;7.89;65.13
3178;BME280;38141;42.666;23.344;2023-04-27T00:49:25;94370.19;;;8.10;65.73
3178;BME280;38141;42.666;23.344;2023-04-27T00:51:52;94375.91;;;8.05;65.06
3178;BME280;38141;42.666;23.344;2023-04-27T00:54:19;94375.22;;;8.15;64.86
3178;BME280;38141;42.666;23.344;2023-04-27T00:56:47;94338.81;;;7.84;65.16
3178;BME280;38141;42.666;23.344;2023-04-27T00:59:15;94377.03;;;8.04;65.98
3178;BME280;38141;42.666;23.344;2023-04-27T01:01:43;94380.56;;;8.08;65.84
3178;BME280;38141;42.666;23.344;2023-04-27T01:04:10;94382.44;;;8.04;64.96
3178;BME280;38141;42.666;23.344;2023-04-27T01:06:36;94385.09;;;7.97;65.82
3178;BME280;38141;42.666;23.344;2023-04-27T01:09:03;94389.22;;;7.84;66.46
3178;BME280;38141;42.666;23.344;2023-04-27T01:11:31;94391.84;;;7.77;67.39
3178;BME280;38141;42.666;23.344;2023-04-27T01:14:02;94377.06;;;7.60;67.12
3178;BME280;38141;42.666;23.344;2023-04-27T01:16:29;94396.03;;;7.71;67.37
3178;BME280;38141;42.666;23.344;2023-04-27T01:18:57;94395.13;;;7.59;67.95
3178;BME280;38141;42.666;23.344;2023-04-27T01:21:24;94400.94;;;7.62;68.07
3178;BME280;38141;42.666;23.344;2023-04-27T01:23:53;94400.16;;;7.61;67.33
3178;BME280;38141;42.666;23.344;2023-04-27T01:26:19;94400.22;;;7.68;68.16
3178;BME280;38141;42.666;23.344;2023-04-27T01:28:47;94380.44;;;7.50;67.68
3178;BME280;38141;42.666;23.344;2023-04-27T01:31:13;94403.59;;;7.58;68.46
3178;BME280;38141;42.666;23.344;2023-04-27T01:33:41;94406.03;;;7.74;67.30
3178;BME280;38141;42.666;23.344;2023-04-27T01:36:08;94400.66;;;7.74;67.64
3178;BME280;38141;42.666;23.344;2023-04-27T01:38:35;94406.97;;;7.51;68.71
3178;BME280;38141;42.666;23.344;2023-04-27T01:41:04;94404.25;;;7.48;68.65
3178;BME280;38141;42.666;23.344;2023-04-27T01:43:34;94401.97;;;7.50;67.71
3178;BME280;38141;42.666;23.344;2023-04-27T01:46:04;94405.00;;;7.45;69.26
3178;BME280;38141;42.666;23.344;2023-04-27T01:48:32;94384.66;;;7.47;67.88
3178;BME280;38141;42.666;23.344;2023-04-27T01:50:58;94407.47;;;7.64;68.36
3178;BME280;38141;42.666;23.344;2023-04-27T01:53:25;94408.19;;;7.54;68.82
3178;BME280;38141;42.666;23.344;2023-04-27T01:55:52;94396.22;;;7.51;68.93
3178;BME280;38141;42.666;23.344;2023-04-27T01:58:21;94399.22;;;7.43;68.00
3178;BME280;38141;42.666;23.344;2023-04-27T02:00:47;94414.59;;;7.46;69.06
3178;BME280;38141;42.666;23.344;2023-04-27T02:03:14;94398.28;;;7.28;68.19
3178;BME280;38141;42.666;23.344;2023-04-27T02:05:41;94396.03;;;7.34;68.01
3178;BME280;38141;42.666;23.344;2023-04-27T02:08:08;94407.00;;;7.55;68.37
3178;BME280;38141;42.666;23.344;2023-04-27T02:10:35;94415.72;;;7.41;69.11
3178;BME280;38141;42.666;23.344;2023-04-27T02:13:02;94414.56;;;7.42;68.75
3178;BME280;38141;42.666;23.344;2023-04-27T02:15:30;94405.16;;;7.22;69.38
3178;BME280;38141;42.666;23.344;2023-04-27T02:17:57;94402.69;;;7.10;69.00
3178;BME280;38141;42.666;23.344;2023-04-27T02:20:23;94396.94;;;7.11;69.28
3178;BME280;38141;42.666;23.344;2023-04-27T02:22:51;94415.44;;;7.17;69.32
3178;BME280;38141;42.666;23.344;2023-04-27T02:25:18;94418.44;;;7.08;70.09
3178;BME280;38141;42.666;23.344;2023-04-27T02:27:45;94423.75;;;7.04;69.96
3178;BME280;38141;42.666;23.344;2023-04-27T02:30:12;94416.16;;;7.13;69.80
3178;BME280;38141;42.666;23.344;2023-04-27T02:32:41;94422.66;;;7.09;69.96
3178;BME280;38141;42.666;23.344;2023-04-27T02:35:08;94423.72;;;7.01;69.47
3178;BME280;38141;42.666;23.344;2023-04-27T02:37:35;94412.72;;;7.13;68.69
3178;BME280;38141;42.666;23.344;2023-04-27T02:40:04;94386.22;;;6.82;69.17
3178;BME280;38141;42.666;23.344;2023-04-27T02:42:32;94427.03;;;7.21;68.54
3178;BME280;38141;42.666;23.344;2023-04-27T02:44:59;94405.66;;;7.01;70.10
3178;BME280;38141;42.666;23.344;2023-04-27T02:47:26;94323.16;;;6.42;69.72
3178;BME280;38141;42.666;23.344;2023-04-27T02:49:54;94424.63;;;7.12;69.25
3178;BME280;38141;42.666;23.344;2023-04-27T02:52:21;94425.31;;;7.05;69.64
3178;BME280;38141;42.666;23.344;2023-04-27T02:54:47;94425.22;;;6.98;70.05
3178;BME280;38141;42.666;23.344;2023-04-27T02:57:14;94425.91;;;6.92;68.77
3178;BME280;38141;42.666;23.344;2023-04-27T02:59:41;94414.94;;;7.04;68.52
3178;BME280;38141;42.666;23.344;2023-04-27T03:02:08;94416.28;;;6.91;68.84
3178;BME280;38141;42.666;23.344;2023-04-27T03:04:35;94423.75;;;7.04;68.13
3178;BME280;38141;42.666;23.344;2023-04-27T03:07:04;94428.66;;;7.29;69.73
3178;BME280;38141;42.666;23.344;2023-04-27T03:09:30;94427.81;;;7.21;68.72
3178;BME280;38141;42.666;23.344;2023-04-27T03:11:57;94432.88;;;7.26;66.91
3178;BME280;38141;42.666;23.344;2023-04-27T03:14:24;94440.13;;;7.22;66.58
3178;BME280;38141;42.666;23.344;2023-04-27T03:16:51;94418.66;;;6.96;68.15
3178;BME280;38141;42.666;23.344;2023-04-27T03:19:18;94438.72;;;7.02;68.83
3178;BME280;38141;42.666;23.344;2023-04-27T03:21:45;94439.53;;;7.06;67.81
3178;BME280;38141;42.666;23.344;2023-04-27T03:24:13;94443.13;;;7.17;66.80
3178;BME280;38141;42.666;23.344;2023-04-27T03:26:40;94438.03;;;7.08;67.42
3178;BME280;38141;42.666;23.344;2023-04-27T03:29:07;94442.13;;;6.99;67.37
3178;BME280;38141;42.666;23.344;2023-04-27T03:31:34;94427.00;;;6.87;67.32
3178;BME280;38141;42.666;23.344;2023-04-27T03:34:01;94451.69;;;6.96;66.55
3178;BME280;38141;42.666;23.344;2023-04-27T03:36:27;94454.69;;;6.91;67.75
3178;BME280;38141;42.666;23.344;2023-04-27T03:38:56;94449.31;;;6.91;68.35
3178;BME280;38141;42.666;23.344;2023-04-27T03:41:24;94460.78;;;6.85;68.97
3178;BME280;38141;42.666;23.344;2023-04-27T03:43:51;94461.16;;;6.87;68.54
3178;BME280;38141;42.666;23.344;2023-04-27T03:46:18;94440.63;;;6.72;68.63
3178;BME280;38141;42.666;23.344;2023-04-27T03:48:45;94449.00;;;6.96;68.98
3178;BME280;38141;42.666;23.344;2023-04-27T03:51:13;94404.47;;;6.69;68.02
3178;BME280;38141;42.666;23.344;2023-04-27T03:53:40;94419.47;;;6.70;67.59
3178;BME280;38141;42.666;23.344;2023-04-27T03:56:13;94439.75;;;6.94;67.35
3178;BME280;38141;42.666;23.344;2023-04-27T03:58:42;94389.25;;;6.50;67.20
3178;BME280;38141;42.666;23.344;2023-04-27T04:01:09;94463.53;;;6.92;66.48
3178;BME280;38141;42.666;23.344;2023-04-27T04:03:36;94478.59;;;6.96;66.62
3178;BME280;38141;42.666;23.344;2023-04-27T04:06:03;94465.72;;;6.83;67.48
3178;BME280;38141;42.666;23.344;2023-04-27T04:08:29;94490.25;;;7.07;66.69
3178;BME280;38141;42.666;23.344;2023-04-27T04:10:57;94489.25;;;7.19;65.98
3178;BME280;38141;42.666;23.344;2023-04-27T04:13:24;94506.16;;;7.20;65.37
3178;BME280;38141;42.666;23.344;2023-04-27T04:16:02;94476.84;;;7.11;66.05
3178;BME280;38141;42.666;23.344;2023-04-27T04:18:29;94492.22;;;7.10;65.51
3178;BME280;38141;42.666;23.344;2023-04-27T04:20:56;94485.88;;;6.96;64.88
3178;BME280;38141;42.666;23.344;2023-04-27T04:23:23;94501.53;;;7.17;65.19
3178;BME280;38141;42.666;23.344;2023-04-27T04:25:50;94501.88;;;7.15;65.30
3178;BME280;38141;42.666;23.344;2023-04-27T04:28:17;94507.38;;;7.22;65.06
3178;BME280;38141;42.666;23.344;2023-04-27T04:30:57;94510.31;;;7.13;65.50
3178;BME280;38141;42.666;23.344;2023-04-27T04:33:31;94441.84;;;7.07;63.55
3178;BME280;38141;42.666;23.344;2023-04-27T04:35:58;94446.50;;;6.81;63.38
3178;BME280;38141;42.666;23.344;2023-04-27T04:38:26;94424.03;;;6.96;63.66
3178;BME280;38141;42.666;23.344;2023-04-27T04:44:16;94532.66;;;8.18;62.10
3178;BME280;38141;42.666;23.344;2023-04-27T04:46:43;94458.38;;;8.17;59.35
3178;BME280;38141;42.666;23.344;2023-04-27T04:49:12;94527.38;;;8.72;59.37
3178;BME280;38141;42.666;23.344;2023-04-27T04:51:41;94542.97;;;9.69;59.24
3178;BME280;38141;42.666;23.344;2023-04-27T04:54:07;94526.22;;;10.71;53.74
3178;BME280;38141;42.666;23.344;2023-04-27T04:56:34;94535.38;;;11.51;51.52
3178;BME280;38141;42.666;23.344;2023-04-27T04:59:02;94503.28;;;12.30;48.88
3178;BME280;38141;42.666;23.344;2023-04-27T05:01:30;94539.75;;;12.80;47.59
3178;BME280;38141;42.666;23.344;2023-04-27T05:03:57;94486.41;;;12.60;46.81
3178;BME280;38141;42.666;23.344;2023-04-27T05:06:25;94461.50;;;13.50;45.20
3178;BME280;38141;42.666;23.344;2023-04-27T05:08:52;94552.22;;;15.31;42.66
3178;BME280;38141;42.666;23.344;2023-04-27T05:11:19;94458.66;;;15.97;40.21
3178;BME280;38141;42.666;23.344;2023-04-27T05:13:46;94546.63;;;16.76;39.92
3178;BME280;38141;42.666;23.344;2023-04-27T05:16:13;94520.25;;;17.02;38.48
3178;BME280;38141;42.666;23.344;2023-04-27T05:18:40;94562.81;;;15.49;41.14
3178;BME280;38141;42.666;23.344;2023-04-27T05:21:12;94562.00;;;15.29;41.44
3178;BME280;38141;42.666;23.344;2023-04-27T05:23:41;94559.19;;;13.23;44.60
3178;BME280;38141;42.666;23.344;2023-04-27T05:26:11;94569.28;;;12.75;45.54
3178;BME280;38141;42.666;23.344;2023-04-27T05:28:38;94576.19;;;12.21;47.42
3178;BME280;38141;42.666;23.344;2023-04-27T05:31:05;94570.84;;;12.03;47.93
3178;BME280;38141;42.666;23.344;2023-04-27T05:33:32;94573.78;;;10.93;50.56
3178;BME280;38141;42.666;23.344;2023-04-27T05:35:58;94574.53;;;10.65;51.61
3178;BME280;38141;42.666;23.344;2023-04-27T05:38:25;94578.00;;;10.62;51.96
3178;BME280;38141;42.666;23.344;2023-04-27T05:40:54;94556.59;;;9.97;52.25
3178;BME280;38141;42.666;23.344;2023-04-27T05:43:21;94578.97;;;9.98;53.30
3178;BME280;38141;42.666;23.344;2023-04-27T05:45:48;94503.16;;;9.45;53.21
3178;BME280;38141;42.666;23.344;2023-04-27T05:48:15;94551.91;;;9.80;53.20
3178;BME280;38141;42.666;23.344;2023-04-27T05:50:42;94587.75;;;9.73;53.38
3178;BME280;38141;42.666;23.344;2023-04-27T05:53:08;94518.16;;;9.42;54.14
3178;BME280;38141;42.666;23.344;2023-04-27T05:55:35;94505.66;;;9.09;53.67
3178;BME280;38141;42.666;23.344;2023-04-27T05:58:05;94586.63;;;9.78;53.96
3178;BME280;38141;42.666;23.344;2023-04-27T06:00:31;94582.41;;;9.91;54.54
3178;BME280;38141;42.666;23.344;2023-04-27T06:02:58;94574.34;;;9.98;54.68
3178;BME280;38141;42.666;23.344;2023-04-27T06:05:25;94533.34;;;9.71;55.04
3178;BME280;38141;42.666;23.344;2023-04-27T06:07:52;94577.06;;;9.98;54.53
3178;BME280;38141;42.666;23.344;2023-04-27T06:10:20;94589.41;;;9.99;54.02
3178;BME280;38141;42.666;23.344;2023-04-27T06:12:46;94589.72;;;9.83;55.71
3178;BME280;38141;42.666;23.344;2023-04-27T06:15:15;94530.03;;;9.23;55.16
3178;BME280;38141;42.666;23.344;2023-04-27T06:17:42;94521.72;;;9.57;54.94
3178;BME280;38141;42.666;23.344;2023-04-27T06:20:10;94495.94;;;9.80;54.89
3178;BME280;38141;42.666;23.344;2023-04-27T06:22:38;94533.53;;;10.28;53.27
3178;BME280;38141;42.666;23.344;2023-04-27T06:25:05;94548.59;;;10.33;53.19
3178;BME280;38141;42.666;23.344;2023-04-27T06:27:32;94560.22;;;10.47;53.68
3178;BME280;38141;42.666;23.344;2023-04-27T06:29:59;94560.63;;;10.78;52.48
3178;BME280;38141;42.666;23.344;2023-04-27T06:32:27;94531.25;;;10.44;53.40
3178;BME280;38141;42.666;23.344;2023-04-27T06:34:54;94547.06;;;11.09;53.05
3178;BME280;38141;42.666;23.344;2023-04-27T06:37:21;94575.69;;;11.00;52.67
3178;BME280;38141;42.666;23.344;2023-04-27T06:39:48;94581.09;;;10.96;52.42
3178;BME280;38141;42.666;23.344;2023-04-27T06:42:15;94569.00;;;11.79;52.38
3178;BME280;38141;42.666;23.344;2023-04-27T06:44:41;94578.44;;;12.33;48.94
3178;BME280;38141;42.666;23.344;2023-04-27T06:47:08;94557.03;;;12.49;48.65
3178;BME280;38141;42.666;23.344;2023-04-27T06:49:36;94562.13;;;13.43;46.46
3178;BME280;38141;42.666;23.344;2023-04-27T06:52:04;94499.72;;;12.43;47.07
3178;BME280;38141;42.666;23.344;2023-04-27T06:54:31;94486.38;;;12.12;47.70
3178;BME280;38141;42.666;23.344;2023-04-27T06:56:57;94562.47;;;13.49;46.46
3178;BME280;38141;42.666;23.344;2023-04-27T06:59:24;94563.81;;;13.26;46.80
3178;BME280;38141;42.666;23.344;2023-04-27T07:01:51;94557.91;;;13.72;46.17
3178;BME280;38141;42.666;23.344;2023-04-27T07:04:18;94515.75;;;13.91;45.22
3178;BME280;38141;42.666;23.344;2023-04-27T07:06:46;94564.16;;;14.07;44.99
3178;BME280;38141;42.666;23.344;2023-04-27T07:09:13;94546.38;;;13.65;45.21
3178;BME280;38141;42.666;23.344;2023-04-27T07:11:40;94556.00;;;14.91;43.36
3178;BME280;38141;42.666;23.344;2023-04-27T07:14:07;94528.56;;;15.71;41.68
3178;BME280;38141;42.666;23.344;2023-04-27T07:16:34;94559.19;;;15.32;42.63
3178;BME280;38141;42.666;23.344;2023-04-27T07:19:00;94550.91;;;14.93;42.78
3178;BME280;38141;42.666;23.344;2023-04-27T07:21:27;94565.78;;;14.61;43.23
3178;BME280;38141;42.666;23.344;2023-04-27T07:23:55;94554.97;;;14.54;42.98
3178;BME280;38141;42.666;23.344;2023-04-27T07:26:22;94557.28;;;13.95;44.19
3178;BME280;38141;42.666;23.344;2023-04-27T07:28:49;94546.19;;;14.43;43.50
3178;BME280;38141;42.666;23.344;2023-04-27T07:31:16;94554.75;;;14.95;43.08
3178;BME280;38141;42.666;23.344;2023-04-27T07:33:43;94520.78;;;15.03;43.60
3178;BME280;38141;42.666;23.344;2023-04-27T07:36:11;94557.44;;;14.99;42.30
3178;BME280;38141;42.666;23.344;2023-04-27T07:38:37;94558.97;;;14.46;43.69
3178;BME280;38141;42.666;23.344;2023-04-27T07:41:06;94559.78;;;14.97;41.95
3178;BME280;38141;42.666;23.344;2023-04-27T07:43:33;94555.34;;;14.26;42.45
3178;BME280;38141;42.666;23.344;2023-04-27T07:46:00;94561.69;;;14.16;43.02
3178;BME280;38141;42.666;23.344;2023-04-27T07:48:28;94468.53;;;13.48;42.54
3178;BME280;38141;42.666;23.344;2023-04-27T07:51:03;94549.47;;;13.67;43.01
3178;BME280;38141;42.666;23.344;2023-04-27T07:53:29;94511.13;;;14.18;43.61
3178;BME280;38141;42.666;23.344;2023-04-27T07:55:56;94546.03;;;13.93;42.43
3178;BME280;38141;42.666;23.344;2023-04-27T07:58:25;94540.69;;;13.86;42.59
3178;BME280;38141;42.666;23.344;2023-04-27T08:00:51;94556.72;;;14.41;42.20
3178;BME280;38141;42.666;23.344;2023-04-27T08:03:18;94554.00;;;14.41;42.07
3178;BME280;38141;42.666;23.344;2023-04-27T08:05:46;94555.84;;;14.75;41.30
3178;BME280;38141;42.666;23.344;2023-04-27T08:08:22;94552.03;;;15.42;41.02
3178;BME280;38141;42.666;23.344;2023-04-27T08:10:49;94535.88;;;16.14;39.48
3178;BME280;38141;42.666;23.344;2023-04-27T08:13:16;94532.09;;;16.63;38.95
3178;BME280;38141;42.666;23.344;2023-04-27T08:15:44;94551.91;;;17.64;36.72
3178;BME280;38141;42.666;23.344;2023-04-27T08:18:14;94553.22;;;17.60;37.44
3178;BME280;38141;42.666;23.344;2023-04-27T08:20:42;94525.72;;;17.80;37.07
3178;BME280;38141;42.666;23.344;2023-04-27T08:23:09;94555.94;;;17.27;36.69
3178;BME280;38141;42.666;23.344;2023-04-27T08:25:37;94561.13;;;18.41;36.31
3178;BME280;38141;42.666;23.344;2023-04-27T08:28:03;94544.47;;;18.89;34.67
3178;BME280;38141;42.666;23.344;2023-04-27T08:30:30;94539.34;;;19.38;34.07
3178;BME280;38141;42.666;23.344;2023-04-27T08:32:58;94491.09;;;18.27;34.94
3178;BME280;38141;42.666;23.344;2023-04-27T08:35:25;94543.78;;;18.73;35.45
3178;BME280;38141;42.666;23.344;2023-04-27T08:37:52;94545.59;;;18.38;35.69
3178;BME280;38141;42.666;23.344;2023-04-27T08:40:26;94528.59;;;19.78;33.88
3178;BME280;38141;42.666;23.344;2023-04-27T08:42:54;94552.03;;;19.70;33.32
3178;BME280;38141;42.666;23.344;2023-04-27T08:45:21;94540.28;;;18.85;34.45
3178;BME280;38141;42.666;23.344;2023-04-27T08:47:49;94526.03;;;19.02;34.83
3178;BME280;38141;42.666;23.344;2023-04-27T08:50:19;94521.69;;;18.38;35.37
3178;BME280;38141;42.666;23.344;2023-04-27T08:52:48;94530.81;;;17.94;35.92
3178;BME280;38141;42.666;23.344;2023-04-27T08:55:15;94525.00;;;18.04;35.62
3178;BME280;38141;42.666;23.344;2023-04-27T08:57:52;94527.94;;;17.23;36.66
3178;BME280;38141;42.666;23.344;2023-04-27T09:00:20;94540.25;;;16.47;37.94
3178;BME280;38141;42.666;23.344;2023-04-27T09:02:48;94530.00;;;16.15;38.94
3178;BME280;38141;42.666;23.344;2023-04-27T09:05:17;94537.22;;;16.41;38.86
3178;BME280;38141;42.666;23.344;2023-04-27T09:07:55;94523.66;;;16.02;39.38
3178;BME280;38141;42.666;23.344;2023-04-27T09:10:22;94504.16;;;16.56;38.40
3178;BME280;38141;42.666;23.344;2023-04-27T09:12:57;94508.34;;;16.24;38.22
3178;BME280;38141;42.666;23.344;2023-04-27T09:15:24;94479.63;;;16.36;38.00
3178;BME280;38141;42.666;23.344;2023-04-27T09:17:53;94513.75;;;18.02;35.69
3178;BME280;38141;42.666;23.344;2023-04-27T09:20:23;94407.94;;;17.83;34.58
3178;BME280;38141;42.666;23.344;2023-04-27T09:22:52;94456.97;;;17.77;35.06
3178;BME280;38141;42.666;23.344;2023-04-27T09:25:24;94496.81;;;18.20;36.15
3178;BME280;38141;42.666;23.344;2023-04-27T09:27:51;94518.16;;;20.08;33.51
3178;BME280;38141;42.666;23.344;2023-04-27T09:30:18;94512.22;;;19.40;34.74
3178;BME280;38141;42.666;23.344;2023-04-27T09:32:52;94515.22;;;17.01;36.63
3178;BME280;38141;42.666;23.344;2023-04-27T09:35:28;94532.28;;;17.05;37.54
3178;BME280;38141;42.666;23.344;2023-04-27T09:37:56;94421.97;;;16.50;37.59
3178;BME280;38141;42.666;23.344;2023-04-27T09:40:24;94497.63;;;16.33;38.29
3178;BME280;38141;42.666;23.344;2023-04-27T09:42:53;94490.59;;;16.52;38.88
3178;BME280;38141;42.666;23.344;2023-04-27T09:45:22;94453.19;;;16.33;38.12
3178;BME280;38141;42.666;23.344;2023-04-27T09:47:49;94523.44;;;18.32;35.19
3178;BME280;38141;42.666;23.344;2023-04-27T09:50:16;94474.19;;;20.60;32.77
3178;BME280;38141;42.666;23.344;2023-04-27T09:52:45;94438.31;;;20.02;32.15
3178;BME280;38141;42.666;23.344;2023-04-27T09:55:15;94498.91;;;18.41;33.88
3178;BME280;38141;42.666;23.344;2023-04-27T09:57:52;94447.84;;;18.22;34.67
3178;BME280;38141;42.666;23.344;2023-04-27T10:00:29;94457.50;;;19.59;32.82
3178;BME280;38141;42.666;23.344;2023-04-27T10:03:08;94477.75;;;19.95;32.16
3178;BME280;38141;42.666;23.344;2023-04-27T10:05:49;94471.84;;;20.28;32.44
3178;BME280;38141;42.666;23.344;2023-04-27T10:08:20;94524.88;;;19.25;33.87
3178;BME280;38141;42.666;23.344;2023-04-27T10:10:48;94447.09;;;18.47;34.38
3178;BME280;38141;42.666;23.344;2023-04-27T10:13:20;94504.38;;;19.17;34.26
3178;BME280;38141;42.666;23.344;2023-04-27T10:15:48;94488.94;;;19.10;33.99
3178;BME280;38141;42.666;23.344;2023-04-27T10:18:25;94483.78;;;19.00;33.71
3178;BME280;38141;42.666;23.344;2023-04-27T10:20:53;94484.41;;;18.03;35.38
3178;BME280;38141;42.666;23.344;2023-04-27T10:23:25;94505.88;;;18.71;34.36
3178;BME280;38141;42.666;23.344;2023-04-27T10:25:53;94457.28;;;18.72;34.18
3178;BME280;38141;42.666;23.344;2023-04-27T10:28:20;94523.50;;;18.70;34.93
3178;BME280;38141;42.666;23.344;2023-04-27T10:30:47;94460.13;;;18.30;34.84
3178;BME280;38141;42.666;23.344;2023-04-27T10:33:18;94482.00;;;18.17;35.27
3178;BME280;38141;42.666;23.344;2023-04-27T10:35:53;94491.47;;;17.59;34.18
3178;BME280;38141;42.666;23.344;2023-04-27T10:38:28;94505.94;;;18.42;33.63
3178;BME280;38141;42.666;23.344;2023-04-27T10:40:56;94474.91;;;18.33;33.75
3178;BME280;38141;42.666;23.344;2023-04-27T10:43:27;94440.28;;;18.39;33.15
3178;BME280;38141;42.666;23.344;2023-04-27T10:46:06;94453.94;;;17.88;34.64
3178;BME280;38141;42.666;23.344;2023-04-27T10:48:33;94504.03;;;18.27;34.82
3178;BME280;38141;42.666;23.344;2023-04-27T10:51:00;94447.44;;;17.24;35.30
3178;BME280;38141;42.666;23.344;2023-04-27T10:53:33;94453.53;;;17.45;34.90
3178;BME280;38141;42.666;23.344;2023-04-27T10:56:01;94449.09;;;17.06;34.77
3178;BME280;38141;42.666;23.344;2023-04-27T10:58:28;94474.91;;;17.05;35.65
3178;BME280;38141;42.666;23.344;2023-04-27T11:00:55;94492.53;;;18.19;34.72
3178;BME280;38141;42.666;23.344;2023-04-27T11:03:22;94491.38;;;18.58;33.93
3178;BME280;38141;42.666;23.344;2023-04-27T11:06:00;94477.09;;;18.12;34.40
3178;BME280;38141;42.666;23.344;2023-04-27T11:08:28;94479.38;;;17.27;35.67
3178;BME280;38141;42.666;23.344;2023-04-27T11:10:58;94490.22;;;17.47;34.92
3178;BME280;38141;42.666;23.344;2023-04-27T11:13:25;94500.03;;;17.61;34.38
3178;BME280;38141;42.666;23.344;2023-04-27T11:15:54;94429.25;;;16.89;34.76
3178;BME280;38141;42.666;23.344;2023-04-27T11:18:23;94446.72;;;16.59;35.16
3178;BME280;38141;42.666;23.344;2023-04-27T11:20:51;94478.84;;;16.35;35.81
3178;BME280;38141;42.666;23.344;2023-04-27T11:23:22;94471.78;;;16.54;35.94
3178;BME280;38141;42.666;23.344;2023-04-27T11:25:50;94439.03;;;16.54;35.05
3178;BME280;38141;42.666;23.344;2023-04-27T11:28:19;94457.31;;;16.57;35.82
3178;BME280;38141;42.666;23.344;2023-04-27T11:30:46;94496.03;;;16.52;36.81
3178;BME280;38141;42.666;23.344;2023-04-27T11:33:13;94497.81;;;16.07;37.91
3178;BME280;38141;42.666;23.344;2023-04-27T11:35:40;94441.16;;;15.94;37.83
3178;BME280;38141;42.666;23.344;2023-04-27T11:38:14;94500.00;;;16.31;37.78
3178;BME280;38141;42.666;23.344;2023-04-27T11:40:42;94501.59;;;16.49;36.77
3178;BME280;38141;42.666;23.344;2023-04-27T11:43:11;94503.78;;;16.37;36.76
3178;BME280;38141;42.666;23.344;2023-04-27T11:45:42;94502.78;;;16.48;36.55
3178;BME280;38141;42.666;23.344;2023-04-27T11:48:12;94507.09;;;16.29;37.42
3178;BME280;38141;42.666;23.344;2023-04-27T11:50:39;94482.09;;;15.75;37.42
3178;BME280;38141;42.666;23.344;2023-04-27T11:53:06;94510.50;;;15.97;37.79
3178;BME280;38141;42.666;23.344;2023-04-27T11:55:34;94430.41;;;15.68;37.51
3178;BME280;38141;42.666;23.344;2023-04-27T11:58:01;94496.44;;;15.98;37.84
3178;BME280;38141;42.666;23.344;2023-04-27T12:00:28;94487.97;;;15.93;38.21
3178;BME280;38141;42.666;23.344;2023-04-27T12:02:56;94491.75;;;15.36;37.76
3178;BME280;38141;42.666;23.344;2023-04-27T12:05:23;94506.16;;;15.80;37.54
3178;BME280;38141;42.666;23.344;2023-04-27T12:07:51;94501.16;;;16.14;37.10
3178;BME280;38141;42.666;23.344;2023-04-27T12:10:18;94515.06;;;15.84;38.20
3178;BME280;38141;42.666;23.344;2023-04-27T12:12:45;94488.41;;;15.52;38.15
3178;BME280;38141;42.666;23.344;2023-04-27T12:15:12;94441.19;;;14.92;38.35
3178;BME280;38141;42.666;23.344;2023-04-27T12:17:38;94514.97;;;15.25;38.99
3178;BME280;38141;42.666;23.344;2023-04-27T12:20:08;94523.84;;;15.52;38.73
3178;BME280;38141;42.666;23.344;2023-04-27T12:22:35;94499.94;;;15.60;38.40
3178;BME280;38141;42.666;23.344;2023-04-27T12:25:02;94513.13;;;15.81;38.32
3178;BME280;38141;42.666;23.344;2023-04-27T12:27:29;94522.03;;;15.42;38.77
3178;BME280;38141;42.666;23.344;2023-04-27T12:29:56;94524.25;;;15.50;38.54
3178;BME280;38141;42.666;23.344;2023-04-27T12:32:24;94493.41;;;15.10;38.37
3178;BME280;38141;42.666;23.344;2023-04-27T12:34:52;94504.53;;;14.96;38.39
3178;BME280;38141;42.666;23.344;2023-04-27T12:37:20;94510.63;;;15.50;38.07
3178;BME280;38141;42.666;23.344;2023-04-27T12:39:47;94417.44;;;14.69;38.08
3178;BME280;38141;42.666;23.344;2023-04-27T12:42:14;94532.78;;;15.29;38.23
3178;BME280;38141;42.666;23.344;2023-04-27T12:44:43;94526.16;;;15.30;38.31
3178;BME280;38141;42.666;23.344;2023-04-27T12:47:10;94531.00;;;14.96;38.73
3178;BME280;38141;42.666;23.344;2023-04-27T12:49:37;94504.59;;;14.93;39.13
3178;BME280;38141;42.666;23.344;2023-04-27T12:52:04;94503.81;;;15.16;39.50
3178;BME280;38141;42.666;23.344;2023-04-27T12:54:33;94510.28;;;15.25;39.01
3178;BME280;38141;42.666;23.344;2023-04-27T12:57:00;94518.91;;;15.43;38.44
3178;BME280;38141;42.666;23.344;2023-04-27T12:59:30;94514.47;;;15.30;39.48
3178;BME280;38141;42.666;23.344;2023-04-27T13:01:57;94513.84;;;14.99;39.11
3178;BME280;38141;42.666;23.344;2023-04-27T13:04:24;94524.59;;;14.83;40.36
3178;BME280;38141;42.666;23.344;2023-04-27T13:06:51;94523.38;;;15.10;39.73
3178;BME280;38141;42.666;23.344;2023-04-27T13:09:18;94524.16;;;15.11;38.92
3178;BME280;38141;42.666;23.344;2023-04-27T13:11:47;94530.91;;;15.03;39.14
3178;BME280;38141;42.666;23.344;2023-04-27T13:14:13;94525.09;;;15.24;39.22